sensor_id;sensor_type;location;lat;lon;timestamp;temperature;humidity
22787;DHT22;63134;52.020;4.714;2023-06-26T00:02:11;24.60;57.60
22787;DHT22;63134;52.020;4.714;2023-06-26T00:04:56;24.60;57.80
22787;DHT22;63134;52.020;4.714;2023-06-26T00:07:48;24.50;58.60
22787;DHT22;63134;52.020;4.714;2023-06-26T00:10:34;24.40;58.00
22787;DHT22;63134;52.020;4.714;2023-06-26T00:13:20;24.40;58.10
22787;DHT22;63134;52.020;4.714;2023-06-26T00:16:05;24.40;58.10
22787;DHT22;63134;52.020;4.714;2023-06-26T00:18:51;24.40;58.10
22787;DHT22;63134;52.020;4.714;2023-06-26T00:21:37;24.30;58.30
22787;DHT22;63134;52.020;4.714;2023-06-26T00:24:23;24.30;58.90
22787;DHT22;63134;52.020;4.714;2023-06-26T00:27:08;24.20;59.70
22787;DHT22;63134;52.020;4.714;2023-06-26T00:29:56;24.10;60.20
22787;DHT22;63134;52.020;4.714;2023-06-26T00:32:42;24.00;61.20
22787;DHT22;63134;52.020;4.714;2023-06-26T00:35:28;23.90;61.70
22787;DHT22;63134;52.020;4.714;2023-06-26T00:38:14;23.80;62.30
22787;DHT22;63134;52.020;4.714;2023-06-26T00:41:00;23.70;63.30
22787;DHT22;63134;52.020;4.714;2023-06-26T00:43:48;23.60;64.00
22787;DHT22;63134;52.020;4.714;2023-06-26T00:46:34;23.40;64.60
22787;DHT22;63134;52.020;4.714;2023-06-26T00:49:20;23.30;65.00
22787;DHT22;63134;52.020;4.714;2023-06-26T00:52:06;23.20;65.40
22787;DHT22;63134;52.020;4.714;2023-06-26T00:54:52;23.10;65.70
22787;DHT22;63134;52.020;4.714;2023-06-26T00:57:37;23.00;66.40
22787;DHT22;63134;52.020;4.714;2023-06-26T01:00:23;22.90;66.90
22787;DHT22;63134;52.020;4.714;2023-06-26T01:03:09;22.80;67.40
22787;DHT22;63134;52.020;4.714;2023-06-26T01:05:56;22.60;67.70
22787;DHT22;63134;52.020;4.714;2023-06-26T01:08:44;22.60;68.20
22787;DHT22;63134;52.020;4.714;2023-06-26T01:11:30;22.50;69.10
22787;DHT22;63134;52.020;4.714;2023-06-26T01:14:16;22.40;69.70
22787;DHT22;63134;52.020;4.714;2023-06-26T01:17:03;22.30;69.80
22787;DHT22;63134;52.020;4.714;2023-06-26T01:19:49;22.20;70.00
22787;DHT22;63134;52.020;4.714;2023-06-26T01:22:56;22.20;70.60
22787;DHT22;63134;52.020;4.714;2023-06-26T01:28:47;22.00;71.90
22787;DHT22;63134;52.020;4.714;2023-06-26T01:31:33;22.00;72.70
22787;DHT22;63134;52.020;4.714;2023-06-26T01:34:20;22.00;73.30
22787;DHT22;63134;52.020;4.714;2023-06-26T01:37:07;22.00;73.70
22787;DHT22;63134;52.020;4.714;2023-06-26T01:39:53;22.00;73.70
22787;DHT22;63134;52.020;4.714;2023-06-26T01:42:39;22.00;73.80
22787;DHT22;63134;52.020;4.714;2023-06-26T01:45:27;22.00;74.20
22787;DHT22;63134;52.020;4.714;2023-06-26T01:48:16;21.90;74.10
22787;DHT22;63134;52.020;4.714;2023-06-26T01:51:05;21.90;74.40
22787;DHT22;63134;52.020;4.714;2023-06-26T01:53:56;21.90;74.90
22787;DHT22;63134;52.020;4.714;2023-06-26T01:56:43;21.90;75.00
22787;DHT22;63134;52.020;4.714;2023-06-26T01:59:32;21.80;75.30
22787;DHT22;63134;52.020;4.714;2023-06-26T02:02:19;21.80;75.80
22787;DHT22;63134;52.020;4.714;2023-06-26T02:05:06;21.70;76.20
22787;DHT22;63134;52.020;4.714;2023-06-26T02:07:51;21.60;76.50
22787;DHT22;63134;52.020;4.714;2023-06-26T02:10:37;21.50;77.20
22787;DHT22;63134;52.020;4.714;2023-06-26T02:13:23;21.50;77.70
22787;DHT22;63134;52.020;4.714;2023-06-26T02:16:08;21.40;77.90
22787;DHT22;63134;52.020;4.714;2023-06-26T02:18:54;21.30;78.40
22787;DHT22;63134;52.020;4.714;2023-06-26T02:21:41;21.30;79.10
22787;DHT22;63134;52.020;4.714;2023-06-26T02:24:32;21.20;79.00
22787;DHT22;63134;52.020;4.714;2023-06-26T02:27:17;21.20;79.20
22787;DHT22;63134;52.020;4.714;2023-06-26T02:30:03;21.20;79.50
22787;DHT22;63134;52.020;4.714;2023-06-26T02:32:49;21.20;79.80
22787;DHT22;63134;52.020;4.714;2023-06-26T02:35:36;21.20;80.00
22787;DHT22;63134;52.020;4.714;2023-06-26T02:38:22;21.20;79.90
22787;DHT22;63134;52.020;4.714;2023-06-26T02:41:07;21.30;80.00
22787;DHT22;63134;52.020;4.714;2023-06-26T02:43:54;21.30;80.10
22787;DHT22;63134;52.020;4.714;2023-06-26T02:46:43;21.40;79.90
22787;DHT22;63134;52.020;4.714;2023-06-26T02:49:29;21.40;79.50
22787;DHT22;63134;52.020;4.714;2023-06-26T02:52:15;21.50;79.60
22787;DHT22;63134;52.020;4.714;2023-06-26T02:55:00;21.50;78.50
22787;DHT22;63134;52.020;4.714;2023-06-26T02:57:46;21.60;78.10
22787;DHT22;63134;52.020;4.714;2023-06-26T03:00:32;21.60;77.70
22787;DHT22;63134;52.020;4.714;2023-06-26T03:03:21;21.60;77.30
22787;DHT22;63134;52.020;4.714;2023-06-26T03:06:08;21.50;77.30
22787;DHT22;63134;52.020;4.714;2023-06-26T03:08:53;21.40;77.40
22787;DHT22;63134;52.020;4.714;2023-06-26T03:11:39;21.20;77.60
22787;DHT22;63134;52.020;4.714;2023-06-26T03:14:25;21.00;77.80
22787;DHT22;63134;52.020;4.714;2023-06-26T03:17:12;21.00;78.30
22787;DHT22;63134;52.020;4.714;2023-06-26T03:19:58;21.00;78.70
22787;DHT22;63134;52.020;4.714;2023-06-26T03:22:51;20.90;78.80
22787;DHT22;63134;52.020;4.714;2023-06-26T03:25:38;20.80;78.90
22787;DHT22;63134;52.020;4.714;2023-06-26T03:28:41;20.80;79.20
22787;DHT22;63134;52.020;4.714;2023-06-26T03:31:29;20.70;79.70
22787;DHT22;63134;52.020;4.714;2023-06-26T03:34:16;20.70;79.80
22787;DHT22;63134;52.020;4.714;2023-06-26T03:37:01;20.70;79.60
22787;DHT22;63134;52.020;4.714;2023-06-26T03:39:47;20.60;79.70
22787;DHT22;63134;52.020;4.714;2023-06-26T03:42:33;20.60;80.10
22787;DHT22;63134;52.020;4.714;2023-06-26T03:45:18;20.50;80.10
22787;DHT22;63134;52.020;4.714;2023-06-26T03:48:04;20.40;80.30
22787;DHT22;63134;52.020;4.714;2023-06-26T03:50:51;20.40;80.60
22787;DHT22;63134;52.020;4.714;2023-06-26T03:53:37;20.30;80.70
22787;DHT22;63134;52.020;4.714;2023-06-26T03:56:22;20.20;80.90
22787;DHT22;63134;52.020;4.714;2023-06-26T03:59:10;20.20;81.30
22787;DHT22;63134;52.020;4.714;2023-06-26T04:01:56;20.20;81.50
22787;DHT22;63134;52.020;4.714;2023-06-26T04:04:42;20.10;81.50
22787;DHT22;63134;52.020;4.714;2023-06-26T04:07:29;20.10;81.70
22787;DHT22;63134;52.020;4.714;2023-06-26T04:10:16;20.00;81.70
22787;DHT22;63134;52.020;4.714;2023-06-26T04:13:02;20.00;81.90
22787;DHT22;63134;52.020;4.714;2023-06-26T04:15:47;20.00;82.20
22787;DHT22;63134;52.020;4.714;2023-06-26T04:18:33;19.90;82.00
22787;DHT22;63134;52.020;4.714;2023-06-26T04:21:19;19.90;82.20
22787;DHT22;63134;52.020;4.714;2023-06-26T04:24:05;20.00;82.60
22787;DHT22;63134;52.020;4.714;2023-06-26T04:26:51;20.00;82.20
22787;DHT22;63134;52.020;4.714;2023-06-26T04:29:36;20.00;82.10
22787;DHT22;63134;52.020;4.714;2023-06-26T04:32:22;20.00;81.90
22787;DHT22;63134;52.020;4.714;2023-06-26T04:35:07;20.00;81.90
22787;DHT22;63134;52.020;4.714;2023-06-26T04:37:53;20.00;82.00
22787;DHT22;63134;52.020;4.714;2023-06-26T04:40:38;20.00;82.00
22787;DHT22;63134;52.020;4.714;2023-06-26T04:43:24;20.00;82.00
22787;DHT22;63134;52.020;4.714;2023-06-26T04:46:10;20.00;82.00
22787;DHT22;63134;52.020;4.714;2023-06-26T04:48:55;20.00;82.00
22787;DHT22;63134;52.020;4.714;2023-06-26T04:51:43;20.00;81.80
22787;DHT22;63134;52.020;4.714;2023-06-26T04:54:29;20.10;81.60
22787;DHT22;63134;52.020;4.714;2023-06-26T04:57:15;20.10;81.30
22787;DHT22;63134;52.020;4.714;2023-06-26T05:00:01;20.10;81.00
22787;DHT22;63134;52.020;4.714;2023-06-26T05:02:46;20.20;80.50
22787;DHT22;63134;52.020;4.714;2023-06-26T05:05:32;20.20;80.20
22787;DHT22;63134;52.020;4.714;2023-06-26T05:08:21;20.20;79.70
22787;DHT22;63134;52.020;4.714;2023-06-26T05:11:07;20.20;79.40
22787;DHT22;63134;52.020;4.714;2023-06-26T05:13:52;20.30;79.30
22787;DHT22;63134;52.020;4.714;2023-06-26T05:16:37;20.30;79.10
22787;DHT22;63134;52.020;4.714;2023-06-26T05:19:23;20.40;78.60
22787;DHT22;63134;52.020;4.714;2023-06-26T05:22:09;20.40;78.20
22787;DHT22;63134;52.020;4.714;2023-06-26T05:24:58;20.40;77.90
22787;DHT22;63134;52.020;4.714;2023-06-26T05:27:44;20.50;78.00
22787;DHT22;63134;52.020;4.714;2023-06-26T05:30:30;20.60;77.60
22787;DHT22;63134;52.020;4.714;2023-06-26T05:33:18;20.60;77.30
22787;DHT22;63134;52.020;4.714;2023-06-26T05:36:07;20.60;77.40
22787;DHT22;63134;52.020;4.714;2023-06-26T05:38:54;20.80;77.60
22787;DHT22;63134;52.020;4.714;2023-06-26T05:41:46;20.70;77.60
22787;DHT22;63134;52.020;4.714;2023-06-26T05:44:31;20.80;77.80
22787;DHT22;63134;52.020;4.714;2023-06-26T05:47:17;20.80;77.80
22787;DHT22;63134;52.020;4.714;2023-06-26T05:50:04;20.90;77.30
22787;DHT22;63134;52.020;4.714;2023-06-26T05:52:49;21.10;77.60
22787;DHT22;63134;52.020;4.714;2023-06-26T05:55:35;21.30;77.20
22787;DHT22;63134;52.020;4.714;2023-06-26T05:58:26;21.50;76.30
22787;DHT22;63134;52.020;4.714;2023-06-26T06:01:16;21.60;75.60
22787;DHT22;63134;52.020;4.714;2023-06-26T06:04:05;21.40;75.00
22787;DHT22;63134;52.020;4.714;2023-06-26T06:06:51;21.20;75.20
22787;DHT22;63134;52.020;4.714;2023-06-26T06:09:36;21.10;75.30
22787;DHT22;63134;52.020;4.714;2023-06-26T06:12:23;21.00;74.10
22787;DHT22;63134;52.020;4.714;2023-06-26T06:15:08;20.90;73.10
22787;DHT22;63134;52.020;4.714;2023-06-26T06:17:54;20.90;72.90
22787;DHT22;63134;52.020;4.714;2023-06-26T06:20:40;20.80;72.20
22787;DHT22;63134;52.020;4.714;2023-06-26T06:23:26;20.70;72.40
22787;DHT22;63134;52.020;4.714;2023-06-26T06:26:12;20.80;72.00
22787;DHT22;63134;52.020;4.714;2023-06-26T06:28:58;20.80;71.10
22787;DHT22;63134;52.020;4.714;2023-06-26T06:31:43;20.80;71.60
22787;DHT22;63134;52.020;4.714;2023-06-26T06:34:29;21.00;71.70
22787;DHT22;63134;52.020;4.714;2023-06-26T06:37:15;21.50;70.20
22787;DHT22;63134;52.020;4.714;2023-06-26T06:40:00;22.00;69.20
22787;DHT22;63134;52.020;4.714;2023-06-26T06:42:46;22.10;67.70
22787;DHT22;63134;52.020;4.714;2023-06-26T06:45:31;22.10;66.50
22787;DHT22;63134;52.020;4.714;2023-06-26T06:48:20;21.80;66.70
22787;DHT22;63134;52.020;4.714;2023-06-26T06:51:05;21.50;66.70
22787;DHT22;63134;52.020;4.714;2023-06-26T06:53:54;21.30;67.30
22787;DHT22;63134;52.020;4.714;2023-06-26T06:56:42;21.10;67.80
22787;DHT22;63134;52.020;4.714;2023-06-26T06:59:28;21.00;68.20
22787;DHT22;63134;52.020;4.714;2023-06-26T07:02:16;20.90;68.10
22787;DHT22;63134;52.020;4.714;2023-06-26T07:05:02;20.80;68.60
22787;DHT22;63134;52.020;4.714;2023-06-26T07:07:50;20.70;68.80
22787;DHT22;63134;52.020;4.714;2023-06-26T07:10:41;20.70;68.90
22787;DHT22;63134;52.020;4.714;2023-06-26T07:13:27;20.60;69.40
22787;DHT22;63134;52.020;4.714;2023-06-26T07:16:13;20.70;69.60
22787;DHT22;63134;52.020;4.714;2023-06-26T07:19:01;20.70;68.70
22787;DHT22;63134;52.020;4.714;2023-06-26T07:21:46;20.80;68.70
22787;DHT22;63134;52.020;4.714;2023-06-26T07:24:32;20.80;68.90
22787;DHT22;63134;52.020;4.714;2023-06-26T07:27:20;20.80;68.90
22787;DHT22;63134;52.020;4.714;2023-06-26T07:30:06;20.70;68.90
22787;DHT22;63134;52.020;4.714;2023-06-26T07:32:54;20.70;69.10
22787;DHT22;63134;52.020;4.714;2023-06-26T07:35:39;20.60;69.20
22787;DHT22;63134;52.020;4.714;2023-06-26T07:38:25;20.60;69.50
22787;DHT22;63134;52.020;4.714;2023-06-26T07:41:10;20.60;68.90
22787;DHT22;63134;52.020;4.714;2023-06-26T07:43:58;20.60;68.80
22787;DHT22;63134;52.020;4.714;2023-06-26T07:46:43;20.60;69.10
22787;DHT22;63134;52.020;4.714;2023-06-26T07:49:30;20.70;69.30
22787;DHT22;63134;52.020;4.714;2023-06-26T07:52:17;20.70;68.90
22787;DHT22;63134;52.020;4.714;2023-06-26T07:55:04;20.80;68.70
22787;DHT22;63134;52.020;4.714;2023-06-26T07:57:49;20.80;68.60
22787;DHT22;63134;52.020;4.714;2023-06-26T08:00:37;20.80;68.40
22787;DHT22;63134;52.020;4.714;2023-06-26T08:03:23;20.80;68.20
22787;DHT22;63134;52.020;4.714;2023-06-26T08:06:19;20.90;67.80
22787;DHT22;63134;52.020;4.714;2023-06-26T08:09:04;21.10;67.50
22787;DHT22;63134;52.020;4.714;2023-06-26T08:11:50;21.10;67.00
22787;DHT22;63134;52.020;4.714;2023-06-26T08:14:38;21.00;67.10
22787;DHT22;63134;52.020;4.714;2023-06-26T08:17:24;21.10;67.00
22787;DHT22;63134;52.020;4.714;2023-06-26T08:20:12;21.40;67.20
22787;DHT22;63134;52.020;4.714;2023-06-26T08:22:58;21.60;65.90
22787;DHT22;63134;52.020;4.714;2023-06-26T08:25:43;21.80;64.30
22787;DHT22;63134;52.020;4.714;2023-06-26T08:28:29;21.70;63.50
22787;DHT22;63134;52.020;4.714;2023-06-26T08:31:15;21.60;64.20
22787;DHT22;63134;52.020;4.714;2023-06-26T08:34:04;21.60;64.30
22787;DHT22;63134;52.020;4.714;2023-06-26T08:36:50;21.70;62.70
22787;DHT22;63134;52.020;4.714;2023-06-26T08:39:36;21.70;62.90
22787;DHT22;63134;52.020;4.714;2023-06-26T08:42:24;21.80;62.20
22787;DHT22;63134;52.020;4.714;2023-06-26T08:45:10;22.00;62.00
22787;DHT22;63134;52.020;4.714;2023-06-26T08:47:59;22.10;60.50
22787;DHT22;63134;52.020;4.714;2023-06-26T08:50:48;22.10;61.00
22787;DHT22;63134;52.020;4.714;2023-06-26T08:56:55;22.30;60.90
22787;DHT22;63134;52.020;4.714;2023-06-26T08:59:41;22.50;60.10
22787;DHT22;63134;52.020;4.714;2023-06-26T09:02:26;22.30;59.50
22787;DHT22;63134;52.020;4.714;2023-06-26T09:05:13;22.30;59.30
22787;DHT22;63134;52.020;4.714;2023-06-26T09:07:58;22.20;59.50
22787;DHT22;63134;52.020;4.714;2023-06-26T09:10:44;22.20;59.20
22787;DHT22;63134;52.020;4.714;2023-06-26T09:13:31;22.10;58.90
22787;DHT22;63134;52.020;4.714;2023-06-26T09:16:17;21.90;59.20
22787;DHT22;63134;52.020;4.714;2023-06-26T09:19:03;21.80;59.10
22787;DHT22;63134;52.020;4.714;2023-06-26T09:21:50;21.80;59.40
22787;DHT22;63134;52.020;4.714;2023-06-26T09:24:37;21.80;59.40
22787;DHT22;63134;52.020;4.714;2023-06-26T09:27:25;21.90;58.60
22787;DHT22;63134;52.020;4.714;2023-06-26T09:30:11;21.90;58.10
22787;DHT22;63134;52.020;4.714;2023-06-26T09:32:56;21.90;57.80
22787;DHT22;63134;52.020;4.714;2023-06-26T09:35:47;22.00;58.00
22787;DHT22;63134;52.020;4.714;2023-06-26T09:38:34;22.20;57.50
22787;DHT22;63134;52.020;4.714;2023-06-26T09:41:20;22.40;57.50
22787;DHT22;63134;52.020;4.714;2023-06-26T09:44:06;22.50;57.10
22787;DHT22;63134;52.020;4.714;2023-06-26T09:46:54;22.60;56.90
22787;DHT22;63134;52.020;4.714;2023-06-26T09:49:43;22.70;56.70
22787;DHT22;63134;52.020;4.714;2023-06-26T09:52:29;22.90;56.30
22787;DHT22;63134;52.020;4.714;2023-06-26T09:55:15;23.10;55.70
22787;DHT22;63134;52.020;4.714;2023-06-26T09:58:02;23.20;54.80
22787;DHT22;63134;52.020;4.714;2023-06-26T10:00:50;23.40;54.20
22787;DHT22;63134;52.020;4.714;2023-06-26T10:03:37;23.50;54.30
22787;DHT22;63134;52.020;4.714;2023-06-26T10:06:44;23.40;54.40
22787;DHT22;63134;52.020;4.714;2023-06-26T10:09:31;23.10;54.50
22787;DHT22;63134;52.020;4.714;2023-06-26T10:12:28;23.10;54.80
22787;DHT22;63134;52.020;4.714;2023-06-26T10:15:14;23.40;54.00
22787;DHT22;63134;52.020;4.714;2023-06-26T10:18:02;23.40;54.00
22787;DHT22;63134;52.020;4.714;2023-06-26T10:20:48;23.60;53.90
22787;DHT22;63134;52.020;4.714;2023-06-26T10:23:38;23.70;54.00
22787;DHT22;63134;52.020;4.714;2023-06-26T10:26:26;23.80;53.90
22787;DHT22;63134;52.020;4.714;2023-06-26T10:29:15;23.70;53.80
22787;DHT22;63134;52.020;4.714;2023-06-26T10:32:04;23.50;54.20
22787;DHT22;63134;52.020;4.714;2023-06-26T10:34:52;23.60;54.00
22787;DHT22;63134;52.020;4.714;2023-06-26T10:37:47;23.60;53.20
22787;DHT22;63134;52.020;4.714;2023-06-26T10:40:46;23.70;53.00
22787;DHT22;63134;52.020;4.714;2023-06-26T10:43:34;23.90;52.90
22787;DHT22;63134;52.020;4.714;2023-06-26T10:46:19;24.30;52.10
22787;DHT22;63134;52.020;4.714;2023-06-26T10:49:12;24.50;51.40
22787;DHT22;63134;52.020;4.714;2023-06-26T10:52:01;24.30;51.30
22787;DHT22;63134;52.020;4.714;2023-06-26T10:54:47;24.20;52.20
22787;DHT22;63134;52.020;4.714;2023-06-26T10:57:36;24.40;52.00
22787;DHT22;63134;52.020;4.714;2023-06-26T11:00:23;24.40;50.50
22787;DHT22;63134;52.020;4.714;2023-06-26T11:03:24;24.20;49.60
22787;DHT22;63134;52.020;4.714;2023-06-26T11:06:11;24.20;49.20
22787;DHT22;63134;52.020;4.714;2023-06-26T11:09:09;24.10;48.70
22787;DHT22;63134;52.020;4.714;2023-06-26T11:11:59;24.20;49.00
22787;DHT22;63134;52.020;4.714;2023-06-26T11:14:50;24.60;48.90
22787;DHT22;63134;52.020;4.714;2023-06-26T11:17:38;24.90;47.70
22787;DHT22;63134;52.020;4.714;2023-06-26T11:20:25;25.10;47.50
22787;DHT22;63134;52.020;4.714;2023-06-26T11:23:12;25.50;47.40
22787;DHT22;63134;52.020;4.714;2023-06-26T11:26:20;25.80;46.10
22787;DHT22;63134;52.020;4.714;2023-06-26T11:29:14;26.00;44.80
22787;DHT22;63134;52.020;4.714;2023-06-26T11:32:01;26.10;44.40
22787;DHT22;63134;52.020;4.714;2023-06-26T11:34:50;26.20;44.60
22787;DHT22;63134;52.020;4.714;2023-06-26T11:37:36;26.10;44.80
22787;DHT22;63134;52.020;4.714;2023-06-26T11:40:22;26.10;44.50
22787;DHT22;63134;52.020;4.714;2023-06-26T11:43:12;25.90;45.20
22787;DHT22;63134;52.020;4.714;2023-06-26T11:46:03;25.80;44.80
22787;DHT22;63134;52.020;4.714;2023-06-26T11:48:50;25.70;45.00
22787;DHT22;63134;52.020;4.714;2023-06-26T11:51:36;25.80;45.10
22787;DHT22;63134;52.020;4.714;2023-06-26T11:54:26;26.40;45.60
22787;DHT22;63134;52.020;4.714;2023-06-26T11:57:15;27.30;44.30
22787;DHT22;63134;52.020;4.714;2023-06-26T12:00:14;28.10;42.30
22787;DHT22;63134;52.020;4.714;2023-06-26T12:02:59;28.50;39.90
22787;DHT22;63134;52.020;4.714;2023-06-26T12:05:47;29.10;39.10
22787;DHT22;63134;52.020;4.714;2023-06-26T12:08:33;29.20;37.60
22787;DHT22;63134;52.020;4.714;2023-06-26T12:11:23;29.60;37.00
22787;DHT22;63134;52.020;4.714;2023-06-26T12:14:17;29.50;36.90
22787;DHT22;63134;52.020;4.714;2023-06-26T12:17:09;29.40;36.60
22787;DHT22;63134;52.020;4.714;2023-06-26T12:19:55;29.90;36.20
22787;DHT22;63134;52.020;4.714;2023-06-26T12:22:46;30.60;35.70
22787;DHT22;63134;52.020;4.714;2023-06-26T12:25:32;31.30;33.90
22787;DHT22;63134;52.020;4.714;2023-06-26T12:28:19;31.60;33.10
22787;DHT22;63134;52.020;4.714;2023-06-26T12:31:22;31.90;33.20
22787;DHT22;63134;52.020;4.714;2023-06-26T12:34:10;32.20;32.30
22787;DHT22;63134;52.020;4.714;2023-06-26T12:37:08;32.00;32.20
22787;DHT22;63134;52.020;4.714;2023-06-26T12:39:57;32.00;33.10
22787;DHT22;63134;52.020;4.714;2023-06-26T12:42:44;32.50;32.40
22787;DHT22;63134;52.020;4.714;2023-06-26T12:45:37;33.00;32.00
22787;DHT22;63134;52.020;4.714;2023-06-26T12:48:40;33.10;31.10
22787;DHT22;63134;52.020;4.714;2023-06-26T12:51:29;32.90;31.10
22787;DHT22;63134;52.020;4.714;2023-06-26T12:54:15;32.40;31.70
22787;DHT22;63134;52.020;4.714;2023-06-26T12:57:07;32.80;32.20
22787;DHT22;63134;52.020;4.714;2023-06-26T12:59:55;32.70;32.30
22787;DHT22;63134;52.020;4.714;2023-06-26T13:02:41;32.90;32.60
22787;DHT22;63134;52.020;4.714;2023-06-26T13:05:26;33.20;31.40
22787;DHT22;63134;52.020;4.714;2023-06-26T13:08:12;33.20;31.50
22787;DHT22;63134;52.020;4.714;2023-06-26T13:10:57;33.80;30.10
22787;DHT22;63134;52.020;4.714;2023-06-26T13:13:43;33.40;29.60
22787;DHT22;63134;52.020;4.714;2023-06-26T13:16:36;34.40;29.80
22787;DHT22;63134;52.020;4.714;2023-06-26T13:19:22;35.60;28.60
22787;DHT22;63134;52.020;4.714;2023-06-26T13:22:08;36.00;27.70
22787;DHT22;63134;52.020;4.714;2023-06-26T13:24:54;35.10;28.00
22787;DHT22;63134;52.020;4.714;2023-06-26T13:27:39;34.40;28.40
22787;DHT22;63134;52.020;4.714;2023-06-26T13:30:25;32.80;29.80
22787;DHT22;63134;52.020;4.714;2023-06-26T13:33:11;32.50;31.60
22787;DHT22;63134;52.020;4.714;2023-06-26T13:35:58;33.90;30.50
22787;DHT22;63134;52.020;4.714;2023-06-26T13:38:43;35.30;29.20
22787;DHT22;63134;52.020;4.714;2023-06-26T13:41:29;36.40;27.90
22787;DHT22;63134;52.020;4.714;2023-06-26T13:44:16;37.10;26.90
22787;DHT22;63134;52.020;4.714;2023-06-26T13:47:21;37.40;26.80
22787;DHT22;63134;52.020;4.714;2023-06-26T13:50:09;37.90;26.00
22787;DHT22;63134;52.020;4.714;2023-06-26T13:52:55;36.20;25.90
22787;DHT22;63134;52.020;4.714;2023-06-26T13:55:42;34.30;27.80
22787;DHT22;63134;52.020;4.714;2023-06-26T13:58:29;33.50;28.60
22787;DHT22;63134;52.020;4.714;2023-06-26T14:01:17;33.50;28.70
22787;DHT22;63134;52.020;4.714;2023-06-26T14:04:03;33.10;28.90
22787;DHT22;63134;52.020;4.714;2023-06-26T14:06:50;33.40;29.20
22787;DHT22;63134;52.020;4.714;2023-06-26T14:09:36;34.00;28.70
22787;DHT22;63134;52.020;4.714;2023-06-26T14:12:24;34.50;28.00
22787;DHT22;63134;52.020;4.714;2023-06-26T14:15:10;34.80;27.90
22787;DHT22;63134;52.020;4.714;2023-06-26T14:17:58;35.40;27.60
22787;DHT22;63134;52.020;4.714;2023-06-26T14:20:50;34.90;26.90
22787;DHT22;63134;52.020;4.714;2023-06-26T14:23:36;35.40;27.60
22787;DHT22;63134;52.020;4.714;2023-06-26T14:26:22;35.80;26.40
22787;DHT22;63134;52.020;4.714;2023-06-26T14:29:07;35.80;26.60
22787;DHT22;63134;52.020;4.714;2023-06-26T14:31:53;36.30;25.80
22787;DHT22;63134;52.020;4.714;2023-06-26T14:34:41;37.00;25.10
22787;DHT22;63134;52.020;4.714;2023-06-26T14:37:26;37.70;24.50
22787;DHT22;63134;52.020;4.714;2023-06-26T14:40:12;36.50;24.50
22787;DHT22;63134;52.020;4.714;2023-06-26T14:42:58;34.50;26.70
22787;DHT22;63134;52.020;4.714;2023-06-26T14:45:45;34.50;26.60
22787;DHT22;63134;52.020;4.714;2023-06-26T14:48:31;35.00;26.80
22787;DHT22;63134;52.020;4.714;2023-06-26T14:51:17;36.20;26.50
22787;DHT22;63134;52.020;4.714;2023-06-26T14:54:02;37.40;25.70
22787;DHT22;63134;52.020;4.714;2023-06-26T14:56:48;38.60;24.60
22787;DHT22;63134;52.020;4.714;2023-06-26T14:59:34;39.30;23.60
22787;DHT22;63134;52.020;4.714;2023-06-26T15:02:21;37.90;24.00
22787;DHT22;63134;52.020;4.714;2023-06-26T15:05:08;35.90;26.10
22787;DHT22;63134;52.020;4.714;2023-06-26T15:07:54;36.50;26.70
22787;DHT22;63134;52.020;4.714;2023-06-26T15:10:39;37.20;25.50
22787;DHT22;63134;52.020;4.714;2023-06-26T15:13:25;36.80;26.10
22787;DHT22;63134;52.020;4.714;2023-06-26T15:16:11;36.40;26.00
22787;DHT22;63134;52.020;4.714;2023-06-26T15:18:57;37.00;25.80
22787;DHT22;63134;52.020;4.714;2023-06-26T15:21:43;37.70;25.20
22787;DHT22;63134;52.020;4.714;2023-06-26T15:24:29;38.30;25.20
22787;DHT22;63134;52.020;4.714;2023-06-26T15:27:15;38.50;24.70
22787;DHT22;63134;52.020;4.714;2023-06-26T15:30:04;37.50;25.50
22787;DHT22;63134;52.020;4.714;2023-06-26T15:32:50;37.60;25.40
22787;DHT22;63134;52.020;4.714;2023-06-26T15:35:37;37.80;25.40
22787;DHT22;63134;52.020;4.714;2023-06-26T15:38:22;38.40;25.20
22787;DHT22;63134;52.020;4.714;2023-06-26T15:41:08;38.90;24.90
22787;DHT22;63134;52.020;4.714;2023-06-26T15:43:54;37.70;24.80
22787;DHT22;63134;52.020;4.714;2023-06-26T15:46:40;37.80;25.60
22787;DHT22;63134;52.020;4.714;2023-06-26T15:49:25;38.40;25.20
22787;DHT22;63134;52.020;4.714;2023-06-26T15:52:11;37.80;25.40
22787;DHT22;63134;52.020;4.714;2023-06-26T15:54:57;36.70;25.90
22787;DHT22;63134;52.020;4.714;2023-06-26T15:57:43;37.50;26.10
22787;DHT22;63134;52.020;4.714;2023-06-26T16:00:28;38.40;25.10
22787;DHT22;63134;52.020;4.714;2023-06-26T16:03:16;39.40;24.20
22787;DHT22;63134;52.020;4.714;2023-06-26T16:06:04;39.70;24.10
22787;DHT22;63134;52.020;4.714;2023-06-26T16:08:49;39.60;24.00
22787;DHT22;63134;52.020;4.714;2023-06-26T16:11:37;39.70;23.80
22787;DHT22;63134;52.020;4.714;2023-06-26T16:14:23;38.20;24.00
22787;DHT22;63134;52.020;4.714;2023-06-26T16:17:09;35.60;26.40
22787;DHT22;63134;52.020;4.714;2023-06-26T16:19:54;36.30;27.10
22787;DHT22;63134;52.020;4.714;2023-06-26T16:22:42;37.20;25.80
22787;DHT22;63134;52.020;4.714;2023-06-26T16:25:28;36.50;26.10
22787;DHT22;63134;52.020;4.714;2023-06-26T16:28:14;36.90;26.00
22787;DHT22;63134;52.020;4.714;2023-06-26T16:31:00;35.50;26.90
22787;DHT22;63134;52.020;4.714;2023-06-26T16:33:45;36.50;27.20
22787;DHT22;63134;52.020;4.714;2023-06-26T16:36:31;37.80;26.00
22787;DHT22;63134;52.020;4.714;2023-06-26T16:39:16;38.30;25.50
22787;DHT22;63134;52.020;4.714;2023-06-26T16:42:06;38.60;25.30
22787;DHT22;63134;52.020;4.714;2023-06-26T16:44:51;38.80;25.10
22787;DHT22;63134;52.020;4.714;2023-06-26T16:47:38;37.40;25.00
22787;DHT22;63134;52.020;4.714;2023-06-26T16:50:24;37.00;26.30
22787;DHT22;63134;52.020;4.714;2023-06-26T16:53:10;36.30;26.70
22787;DHT22;63134;52.020;4.714;2023-06-26T16:55:57;36.30;26.90
22787;DHT22;63134;52.020;4.714;2023-06-26T16:58:43;36.70;27.40
22787;DHT22;63134;52.020;4.714;2023-06-26T17:01:28;37.40;26.20
22787;DHT22;63134;52.020;4.714;2023-06-26T17:04:22;37.60;26.20
22787;DHT22;63134;52.020;4.714;2023-06-26T17:07:09;37.90;25.90
22787;DHT22;63134;52.020;4.714;2023-06-26T17:09:56;38.30;25.60
22787;DHT22;63134;52.020;4.714;2023-06-26T17:12:42;37.80;25.00
22787;DHT22;63134;52.020;4.714;2023-06-26T17:15:28;37.60;25.20
22787;DHT22;63134;52.020;4.714;2023-06-26T17:18:13;37.70;25.00
22787;DHT22;63134;52.020;4.714;2023-06-26T17:20:59;37.50;25.30
22787;DHT22;63134;52.020;4.714;2023-06-26T17:23:45;36.40;25.70
22787;DHT22;63134;52.020;4.714;2023-06-26T17:26:31;34.90;26.70
22787;DHT22;63134;52.020;4.714;2023-06-26T17:29:19;34.60;28.00
22787;DHT22;63134;52.020;4.714;2023-06-26T17:32:08;36.00;26.90
22787;DHT22;63134;52.020;4.714;2023-06-26T17:34:53;36.90;26.10
22787;DHT22;63134;52.020;4.714;2023-06-26T17:37:46;37.40;25.60
22787;DHT22;63134;52.020;4.714;2023-06-26T17:40:39;36.50;25.50
22787;DHT22;63134;52.020;4.714;2023-06-26T17:43:26;36.00;26.50